createdAt,value
2023-03-15T00:01:39.799Z,5.20
2023-03-15T00:08:15.751Z,4.70
2023-03-15T00:10:44.919Z,9.70
2023-03-15T00:13:13.276Z,5.10
2023-03-15T00:15:48.989Z,7.80
2023-03-15T00:18:17.673Z,7.80
2023-03-15T00:20:47.249Z,7.30
2023-03-15T00:23:15.643Z,7.70
2023-03-15T00:25:50.582Z,7.60
2023-03-15T00:28:19.536Z,7.60
2023-03-15T00:30:47.748Z,9.00
2023-03-15T00:33:17.268Z,7.00
2023-03-15T00:35:45.820Z,6.70
2023-03-15T00:38:18.172Z,8.70
2023-03-15T00:40:46.982Z,7.50
2023-03-15T00:43:18.012Z,7.20
2023-03-15T00:45:47.503Z,7.40
2023-03-15T00:48:15.836Z,8.70
2023-03-15T00:50:45.888Z,8.60
2023-03-15T00:53:14.101Z,8.10
2023-03-15T00:55:46.673Z,9.70
2023-03-15T00:58:17.605Z,10.20
2023-03-15T01:00:45.922Z,10.50
2023-03-15T01:03:16.965Z,9.50
2023-03-15T01:05:45.301Z,8.80
2023-03-15T01:08:13.487Z,8.60
2023-03-15T01:10:44.987Z,8.40
2023-03-15T01:13:13.100Z,8.10
2023-03-15T01:15:45.982Z,8.40
2023-03-15T01:18:14.372Z,8.40
2023-03-15T01:20:44.291Z,8.90
2023-03-15T01:23:13.379Z,6.20
2023-03-15T01:25:41.675Z,9.00
2023-03-15T01:28:10.326Z,9.40
2023-03-15T01:30:38.886Z,8.50
2023-03-15T01:33:07.033Z,11.60
2023-03-15T01:35:35.553Z,11.40
2023-03-15T01:38:03.784Z,12.20
2023-03-15T01:40:34.176Z,13.00
2023-03-15T01:43:05.435Z,11.00
2023-03-15T01:48:22.607Z,14.30
2023-03-15T01:50:51.053Z,12.50
2023-03-15T01:53:20.167Z,15.40
2023-03-15T01:55:49.971Z,13.00
2023-03-15T01:58:21.740Z,11.70
2023-03-15T02:00:53.154Z,15.00
2023-03-15T02:03:25.050Z,13.40
2023-03-15T02:05:58.032Z,16.00
2023-03-15T02:08:39.213Z,12.80
2023-03-15T02:11:07.436Z,14.50
2023-03-15T02:13:38.127Z,22.30
2023-03-15T02:16:09.493Z,14.30
2023-03-15T02:18:43.050Z,13.50
2023-03-15T02:21:31.269Z,14.30
2023-03-15T02:24:21.163Z,13.40
2023-03-15T02:26:53.633Z,12.40
2023-03-15T02:31:53.685Z,14.30
2023-03-15T02:34:25.515Z,14.50
2023-03-15T02:36:54.990Z,16.10
2023-03-15T02:39:23.696Z,16.30
2023-03-15T02:41:53.860Z,16.40
2023-03-15T02:44:33.767Z,17.50
2023-03-15T02:47:16.814Z,21.10
2023-03-15T02:49:46.718Z,20.60
2023-03-15T02:52:15.024Z,17.90
2023-03-15T02:54:43.804Z,21.90
2023-03-15T02:57:15.754Z,21.90
2023-03-15T02:59:44.484Z,23.70
2023-03-15T03:02:13.616Z,21.10
2023-03-15T03:04:44.470Z,21.00
2023-03-15T03:07:13.290Z,22.80
2023-03-15T03:09:51.057Z,26.00
2023-03-15T03:12:20.984Z,24.50
2023-03-15T03:14:54.467Z,23.50
2023-03-15T03:17:24.996Z,29.60
2023-03-15T03:19:53.311Z,28.40
2023-03-15T03:22:27.184Z,26.80
2023-03-15T03:24:56.236Z,25.70
2023-03-15T03:27:25.280Z,31.60
2023-03-15T03:29:53.823Z,31.50
2023-03-15T03:32:22.321Z,30.20
2023-03-15T03:34:51.509Z,30.60
2023-03-15T03:37:22.710Z,28.80
2023-03-15T03:39:58.642Z,29.80
2023-03-15T03:42:27.266Z,30.50
2023-03-15T03:44:55.439Z,27.20
2023-03-15T03:47:24.444Z,24.40
2023-03-15T03:49:52.894Z,26.10
2023-03-15T03:52:26.062Z,25.40
2023-03-15T03:54:56.412Z,27.00
2023-03-15T03:57:25.296Z,27.10
2023-03-15T03:59:53.871Z,31.30
2023-03-15T04:02:22.697Z,32.40
2023-03-15T04:05:06.081Z,42.70
2023-03-15T04:07:34.726Z,35.70
2023-03-15T04:10:03.091Z,34.80
2023-03-15T04:12:31.886Z,31.60
2023-03-15T04:15:01.155Z,27.70
2023-03-15T04:17:34.260Z,40.90
2023-03-15T04:20:05.255Z,44.90
2023-03-15T04:22:35.033Z,31.80
2023-03-15T04:25:26.713Z,36.00
2023-03-15T04:28:13.486Z,40.40
2023-03-15T04:31:05.197Z,41.50
2023-03-15T04:33:54.780Z,27.90
2023-03-15T04:36:45.911Z,23.00
2023-03-15T04:39:36.842Z,24.80
2023-03-15T04:42:17.320Z,28.20
2023-03-15T04:45:09.260Z,29.00
2023-03-15T04:48:01.593Z,30.80
2023-03-15T04:50:44.169Z,33.40
2023-03-15T04:53:35.911Z,26.60
2023-03-15T04:56:22.598Z,35.10
2023-03-15T04:59:11.580Z,41.30
2023-03-15T05:01:51.517Z,37.10
2023-03-15T05:04:52.205Z,39.80
2023-03-15T05:07:44.538Z,32.50
2023-03-15T05:10:42.274Z,36.50
2023-03-15T05:13:28.371Z,41.20
2023-03-15T05:19:46.443Z,42.90
2023-03-15T05:22:33.250Z,40.30
2023-03-15T05:25:20.188Z,51.80
2023-03-15T05:28:08.529Z,42.70
2023-03-15T05:30:59.417Z,41.10
2023-03-15T05:33:54.557Z,39.10
2023-03-15T05:36:32.301Z,35.90
2023-03-15T05:39:23.074Z,35.10
2023-03-15T05:42:07.795Z,28.90
2023-03-15T05:44:41.706Z,27.90
2023-03-15T05:47:42.387Z,26.40
2023-03-15T05:50:31.651Z,26.60
2023-03-15T05:53:15.307Z,25.10
2023-03-15T05:55:58.057Z,27.00
2023-03-15T05:58:44.840Z,27.40
2023-03-15T06:01:42.254Z,21.40
2023-03-15T06:04:24.891Z,23.90
2023-03-15T06:06:53.433Z,18.90
2023-03-15T06:09:24.510Z,20.20
2023-03-15T06:11:53.745Z,26.00
2023-03-15T06:14:23.183Z,24.20
2023-03-15T06:16:53.590Z,28.50
2023-03-15T06:19:24.457Z,27.10
2023-03-15T06:21:54.428Z,30.90
2023-03-15T06:24:36.930Z,26.80
2023-03-15T06:27:05.119Z,32.60
2023-03-15T06:29:36.183Z,34.50
2023-03-15T06:32:04.949Z,39.30
2023-03-15T06:34:33.707Z,43.00
2023-03-15T06:37:02.166Z,35.00
2023-03-15T06:39:34.484Z,32.80
2023-03-15T06:42:04.488Z,40.60
2023-03-15T06:44:35.527Z,34.60
2023-03-15T06:47:06.504Z,40.70
2023-03-15T06:49:34.648Z,41.70
2023-03-15T06:52:04.639Z,38.40
2023-03-15T06:54:33.466Z,42.30
2023-03-15T06:57:02.286Z,34.50
2023-03-15T06:59:31.236Z,33.50
2023-03-15T07:02:00.691Z,34.10
2023-03-15T07:04:29.088Z,33.30
2023-03-15T07:06:57.253Z,34.60
2023-03-15T07:09:25.490Z,37.60
2023-03-15T07:11:53.891Z,36.10
2023-03-15T07:14:22.429Z,41.70
2023-03-15T07:16:50.716Z,38.20
2023-03-15T07:19:19.033Z,42.50
2023-03-15T07:21:48.438Z,39.90
2023-03-15T07:24:17.331Z,38.30
2023-03-15T07:26:45.677Z,43.40
2023-03-15T07:29:13.780Z,42.80
2023-03-15T07:31:41.930Z,43.60
2023-03-15T07:34:10.162Z,39.30
2023-03-15T07:36:39.112Z,39.20
2023-03-15T07:39:07.282Z,34.50
2023-03-15T07:41:38.416Z,33.70
2023-03-15T07:44:16.669Z,37.10
2023-03-15T07:46:44.906Z,36.40
2023-03-15T07:49:13.579Z,31.00
2023-03-15T07:51:42.559Z,26.40
2023-03-15T07:54:11.381Z,31.00
2023-03-15T07:56:40.330Z,24.80
2023-03-15T07:59:08.775Z,27.90
2023-03-15T08:01:37.636Z,30.50
2023-03-15T08:04:06.008Z,27.70
2023-03-15T08:06:37.120Z,23.60
2023-03-15T08:09:06.931Z,22.10
2023-03-15T08:14:11.195Z,26.50
2023-03-15T08:16:39.449Z,29.30
2023-03-15T08:19:09.573Z,28.30
2023-03-15T08:21:39.033Z,26.40
2023-03-15T08:24:07.503Z,22.20
2023-03-15T08:26:43.408Z,25.40
2023-03-15T08:29:12.389Z,27.70
2023-03-15T08:31:40.563Z,20.90
2023-03-15T08:34:09.139Z,24.50
2023-03-15T08:36:47.551Z,17.30
2023-03-15T08:39:15.815Z,22.30
2023-03-15T08:41:45.613Z,22.00
2023-03-15T08:44:16.462Z,21.00
2023-03-15T08:46:45.166Z,26.70
2023-03-15T08:49:13.285Z,15.80
2023-03-15T08:51:41.447Z,17.80
2023-03-15T08:54:09.804Z,16.70
2023-03-15T08:56:41.818Z,15.00
2023-03-15T08:59:12.816Z,20.70
2023-03-15T09:01:44.921Z,22.10
2023-03-15T09:04:14.031Z,16.30
2023-03-15T09:06:42.381Z,14.30
2023-03-15T09:09:10.572Z,19.80
2023-03-15T09:11:40.444Z,16.30
2023-03-15T09:14:08.685Z,16.80
2023-03-15T09:16:37.386Z,20.00
2023-03-15T09:19:05.710Z,19.10
2023-03-15T09:21:34.193Z,16.50
2023-03-15T09:24:02.398Z,17.70
2023-03-15T09:26:30.918Z,17.20
2023-03-15T09:29:03.332Z,18.80
2023-03-15T09:31:32.352Z,14.20
2023-03-15T09:34:00.738Z,17.50
2023-03-15T09:36:29.033Z,17.40
2023-03-15T09:38:57.538Z,16.30
2023-03-15T09:41:45.126Z,13.40
2023-03-15T09:44:22.422Z,25.30
2023-03-15T09:46:53.935Z,21.70
2023-03-15T09:49:59.536Z,21.20
2023-03-15T09:53:00.163Z,23.50
2023-03-15T09:55:28.829Z,24.20
2023-03-15T09:58:04.100Z,25.40
2023-03-15T10:00:47.996Z,24.10
2023-03-15T10:03:46.082Z,30.10
2023-03-15T10:06:30.497Z,27.00
2023-03-15T10:08:59.812Z,25.70
2023-03-15T10:11:46.313Z,19.50
2023-03-15T10:14:30.341Z,21.40
2023-03-15T10:16:58.443Z,24.90
2023-03-15T10:19:32.639Z,20.70
2023-03-15T10:22:11.685Z,20.60
2023-03-15T10:24:41.270Z,24.80
2023-03-15T10:27:14.630Z,19.10
2023-03-15T10:29:42.994Z,20.00
2023-03-15T10:32:17.956Z,25.10
2023-03-15T10:34:52.368Z,19.40
2023-03-15T10:37:25.248Z,21.10
2023-03-15T10:39:57.504Z,17.30
2023-03-15T10:42:32.787Z,18.70
2023-03-15T10:45:21.760Z,19.40
2023-03-15T10:47:59.637Z,15.20
2023-03-15T10:50:35.433Z,18.60
2023-03-15T10:53:10.613Z,24.10
2023-03-15T10:55:43.543Z,23.00
2023-03-15T10:58:25.872Z,14.90
2023-03-15T11:01:02.013Z,17.60
2023-03-15T11:03:31.382Z,17.40
2023-03-15T11:06:00.060Z,20.80
2023-03-15T11:08:40.060Z,16.90
2023-03-15T11:11:08.413Z,21.50
2023-03-15T11:14:01.659Z,16.60
2023-03-15T11:16:36.332Z,18.20
2023-03-15T11:19:04.581Z,18.40
2023-03-15T11:21:33.763Z,17.20
2023-03-15T11:24:03.384Z,17.60
2023-03-15T11:26:36.607Z,15.00
2023-03-15T11:29:11.230Z,17.60
2023-03-15T11:31:39.524Z,14.10
2023-03-15T11:34:39.152Z,17.80
2023-03-15T11:37:15.374Z,16.50
2023-03-15T11:40:01.619Z,17.20
2023-03-15T11:42:37.080Z,18.20
2023-03-15T11:45:09.177Z,16.50
2023-03-15T11:47:42.733Z,18.20
2023-03-15T11:50:15.041Z,24.70
2023-03-15T11:52:43.268Z,20.10
2023-03-15T11:55:17.270Z,23.30
2023-03-15T11:57:46.404Z,23.10
2023-03-15T12:00:47.239Z,14.10
2023-03-15T12:03:28.509Z,19.80
2023-03-15T12:06:34.203Z,18.20
2023-03-15T12:09:02.424Z,17.90
2023-03-15T12:11:33.550Z,18.40
2023-03-15T12:14:01.866Z,17.10
2023-03-15T12:16:34.920Z,20.40
2023-03-15T12:19:21.117Z,18.00
2023-03-15T12:21:53.543Z,15.90
2023-03-15T12:24:26.861Z,15.70
2023-03-15T12:26:59.451Z,16.20
2023-03-15T12:29:28.576Z,17.30
2023-03-15T12:32:02.994Z,16.10
2023-03-15T12:34:39.560Z,16.70
2023-03-15T12:37:21.996Z,11.90
2023-03-15T12:40:16.044Z,19.80
2023-03-15T12:42:48.257Z,13.20
2023-03-15T12:45:17.603Z,15.30
2023-03-15T12:47:52.182Z,14.20
2023-03-15T12:50:45.880Z,13.60
2023-03-15T12:53:22.740Z,15.80
2023-03-15T12:55:54.072Z,14.50
2023-03-15T12:58:35.010Z,18.90
2023-03-15T13:01:05.724Z,14.20
2023-03-15T13:03:35.413Z,21.90
2023-03-15T13:06:08.322Z,16.60
2023-03-15T13:09:04.878Z,18.10
2023-03-15T13:11:49.800Z,19.40
2023-03-15T13:14:33.681Z,16.70
2023-03-15T13:17:17.365Z,16.90
2023-03-15T13:19:46.964Z,19.20
2023-03-15T13:22:29.854Z,22.20
2023-03-15T13:25:08.903Z,16.50
2023-03-15T13:27:43.454Z,18.90
2023-03-15T13:30:37.360Z,15.50
2023-03-15T13:33:08.643Z,20.80
2023-03-15T13:35:48.119Z,21.50
2023-03-15T13:38:32.827Z,21.00
2023-03-15T13:41:06.414Z,19.00
2023-03-15T13:43:36.825Z,20.30
2023-03-15T13:46:09.528Z,18.80
2023-03-15T13:48:44.038Z,19.20
2023-03-15T13:51:15.189Z,21.20
2023-03-15T13:53:49.804Z,18.90
2023-03-15T13:56:20.591Z,17.30
2023-03-15T13:58:52.162Z,22.20
2023-03-15T14:01:20.473Z,20.60
2023-03-15T14:03:52.194Z,21.30
2023-03-15T14:06:22.746Z,20.80
2023-03-15T14:08:55.186Z,22.00
2023-03-15T14:11:26.085Z,19.30
2023-03-15T14:13:59.654Z,17.60
2023-03-15T14:17:04.814Z,17.60
2023-03-15T14:19:35.076Z,24.00
2023-03-15T14:22:05.625Z,19.70
2023-03-15T14:24:41.327Z,20.10
2023-03-15T14:27:13.559Z,22.00
2023-03-15T14:29:50.011Z,18.60
2023-03-15T14:32:34.263Z,20.40
2023-03-15T14:35:08.189Z,17.60
2023-03-15T14:37:42.627Z,18.90
2023-03-15T14:40:35.252Z,24.00
2023-03-15T14:43:04.376Z,22.50
2023-03-15T14:45:33.673Z,16.60
2023-03-15T14:48:11.656Z,18.90
2023-03-15T14:50:41.918Z,16.60
2023-03-15T14:53:14.746Z,19.50
2023-03-15T14:55:49.059Z,26.60
2023-03-15T14:58:19.253Z,38.60
2023-03-15T15:03:44.175Z,23.90
2023-03-15T15:06:14.391Z,22.90
2023-03-15T15:08:47.651Z,20.40
2023-03-15T15:11:16.472Z,25.10
2023-03-15T15:13:45.450Z,35.00
2023-03-15T15:16:13.887Z,26.00
2023-03-15T15:18:42.570Z,26.10
2023-03-15T15:21:18.463Z,31.40
2023-03-15T15:23:58.036Z,28.40
2023-03-15T15:26:28.534Z,29.40
2023-03-15T15:28:58.030Z,33.50
2023-03-15T15:31:33.817Z,27.20
2023-03-15T15:34:04.135Z,35.70
2023-03-15T15:36:38.795Z,35.50
2023-03-15T15:39:22.282Z,27.90
2023-03-15T15:41:50.536Z,29.50
2023-03-15T15:44:21.671Z,30.40
2023-03-15T15:46:50.073Z,26.30
2023-03-15T15:49:19.606Z,27.90
2023-03-15T15:51:50.219Z,26.50
2023-03-15T15:54:20.535Z,25.10
2023-03-15T15:56:50.717Z,20.00
2023-03-15T15:59:19.740Z,21.90
2023-03-15T16:02:00.684Z,28.40
2023-03-15T16:04:37.549Z,23.60
2023-03-15T16:07:07.217Z,24.70
2023-03-15T16:09:36.267Z,23.60
2023-03-15T16:12:13.779Z,20.60
2023-03-15T16:14:42.798Z,24.10
2023-03-15T16:17:22.251Z,29.10
2023-03-15T16:19:53.332Z,29.40
2023-03-15T16:22:22.595Z,34.40
2023-03-15T16:24:53.531Z,31.20
2023-03-15T16:27:23.492Z,43.80
2023-03-15T16:29:53.335Z,42.40
2023-03-15T16:32:36.749Z,64.30
2023-03-15T16:35:17.912Z,26.40
2023-03-15T16:37:47.650Z,45.90
2023-03-15T16:40:21.525Z,33.50
2023-03-15T16:42:49.983Z,21.90
2023-03-15T16:45:18.637Z,23.90
2023-03-15T16:47:48.825Z,22.90
2023-03-15T16:50:18.883Z,27.00
2023-03-15T16:52:48.004Z,22.80
2023-03-15T16:55:20.082Z,23.10
2023-03-15T16:57:52.090Z,24.70
2023-03-15T17:00:20.905Z,22.50
2023-03-15T17:02:50.150Z,28.20
2023-03-15T17:05:24.464Z,29.60
2023-03-15T17:07:54.166Z,24.00
2023-03-15T17:10:31.091Z,26.70
2023-03-15T17:13:02.962Z,25.30
2023-03-15T17:15:31.603Z,24.50
2023-03-15T17:18:00.484Z,28.70
2023-03-15T17:20:30.057Z,29.10
2023-03-15T17:23:04.074Z,29.60
2023-03-15T17:25:33.727Z,31.20
2023-03-15T17:28:03.429Z,44.30
2023-03-15T17:30:33.714Z,93.00
2023-03-15T17:33:05.240Z,79.10
2023-03-15T17:35:37.280Z,33.00
2023-03-15T17:38:06.558Z,31.80
2023-03-15T17:40:35.441Z,37.00
2023-03-15T17:43:04.517Z,34.10
2023-03-15T17:45:33.803Z,42.00
2023-03-15T17:48:02.323Z,35.90
2023-03-15T17:50:32.497Z,40.60
2023-03-15T17:53:18.866Z,35.50
2023-03-15T17:55:48.101Z,41.10
2023-03-15T17:58:21.939Z,30.60
2023-03-15T18:00:51.653Z,33.80
2023-03-15T18:03:20.348Z,34.00
2023-03-15T18:05:50.641Z,28.60
2023-03-15T18:08:34.814Z,30.40
2023-03-15T18:11:04.389Z,33.90
2023-03-15T18:13:33.537Z,33.70
2023-03-15T18:16:02.349Z,33.90
2023-03-15T18:18:31.969Z,36.70
2023-03-15T18:21:00.422Z,40.20
2023-03-15T18:23:33.482Z,40.00
2023-03-15T18:26:02.667Z,36.30
2023-03-15T18:28:31.294Z,37.10
2023-03-15T18:31:00.138Z,38.40
2023-03-15T18:33:28.631Z,36.30
2023-03-15T18:35:58.991Z,41.10
2023-03-15T18:38:30.109Z,40.00
2023-03-15T18:40:58.719Z,41.00
2023-03-15T18:43:28.162Z,41.50
2023-03-15T18:45:56.695Z,42.40
2023-03-15T18:48:40.087Z,38.10
2023-03-15T18:51:12.406Z,38.00
2023-03-15T18:53:41.599Z,44.60
2023-03-15T18:56:31.091Z,39.20
2023-03-15T18:59:00.678Z,40.10
2023-03-15T19:01:29.399Z,37.20
2023-03-15T19:03:57.849Z,42.60
2023-03-15T19:06:28.646Z,37.60
2023-03-15T19:08:57.539Z,40.90
2023-03-15T19:11:27.124Z,44.30
2023-03-15T19:13:55.611Z,41.80
2023-03-15T19:16:24.956Z,44.80
2023-03-15T19:18:54.064Z,40.70
2023-03-15T19:21:28.167Z,43.20
2023-03-15T19:23:58.172Z,46.30
2023-03-15T19:26:26.654Z,34.00
2023-03-15T19:28:56.669Z,40.60
2023-03-15T19:31:25.193Z,39.70
2023-03-15T19:33:59.240Z,38.20
2023-03-15T19:36:27.828Z,40.20
2023-03-15T19:38:56.487Z,46.10
2023-03-15T19:41:27.326Z,36.40
2023-03-15T19:43:56.240Z,47.50
2023-03-15T19:46:30.792Z,40.30
2023-03-15T19:48:59.545Z,44.10
2023-03-15T19:51:28.190Z,48.80
2023-03-15T19:53:57.425Z,44.80
2023-03-15T19:56:26.338Z,43.80
2023-03-15T19:58:57.300Z,44.60
2023-03-15T20:01:27.104Z,41.60
2023-03-15T20:03:56.203Z,43.60
2023-03-15T20:06:24.845Z,37.80
2023-03-15T20:08:53.724Z,43.40
2023-03-15T20:11:29.496Z,41.20
2023-03-15T20:13:58.193Z,40.90
2023-03-15T20:16:26.920Z,41.60
2023-03-15T20:18:57.181Z,44.50
2023-03-15T20:21:26.029Z,45.30
2023-03-15T20:23:54.963Z,39.50
2023-03-15T20:26:25.498Z,45.20
2023-03-15T20:28:53.869Z,42.60
2023-03-15T20:31:23.111Z,43.30
2023-03-15T20:33:53.596Z,48.50
2023-03-15T20:36:22.176Z,45.60
2023-03-15T20:38:50.716Z,45.10
2023-03-15T20:41:19.840Z,40.80
2023-03-15T20:43:49.151Z,48.70
2023-03-15T20:46:19.464Z,48.90
2023-03-15T20:48:47.758Z,50.80
2023-03-15T20:51:16.911Z,52.40
2023-03-15T20:53:46.558Z,47.00
2023-03-15T20:56:16.856Z,48.00
2023-03-15T20:58:48.823Z,51.20
2023-03-15T21:03:50.928Z,51.40
2023-03-15T21:06:20.223Z,52.10
2023-03-15T21:08:48.739Z,53.40
2023-03-15T21:11:17.006Z,54.60
2023-03-15T21:13:45.781Z,54.50
2023-03-15T21:16:15.200Z,52.50
2023-03-15T21:18:51.968Z,54.20
2023-03-15T21:21:24.949Z,59.80
2023-03-15T21:23:54.758Z,54.10
2023-03-15T21:26:24.944Z,54.40
2023-03-15T21:28:58.089Z,55.60
2023-03-15T21:31:28.340Z,52.20
2023-03-15T21:33:57.503Z,52.50
2023-03-15T21:36:26.315Z,52.60
2023-03-15T21:38:55.767Z,52.00
2023-03-15T21:41:24.942Z,51.10
2023-03-15T21:43:53.426Z,51.80
2023-03-15T21:46:21.931Z,52.00
2023-03-15T21:48:51.788Z,49.50
2023-03-15T21:51:20.066Z,50.40
2023-03-15T21:53:51.372Z,46.30
2023-03-15T21:56:19.900Z,47.70
2023-03-15T21:58:48.101Z,46.30
2023-03-15T22:01:16.721Z,49.70
2023-03-15T22:03:44.826Z,48.30
2023-03-15T22:06:13.371Z,56.50
2023-03-15T22:08:42.499Z,52.30
2023-03-15T22:11:10.737Z,54.20
2023-03-15T22:13:41.723Z,51.60
2023-03-15T22:16:11.059Z,57.60
2023-03-15T22:18:39.374Z,52.40
2023-03-15T22:21:10.739Z,54.20
2023-03-15T22:23:39.642Z,49.80
2023-03-15T22:26:11.139Z,54.20
2023-03-15T22:28:41.548Z,53.60
2023-03-15T22:31:11.027Z,53.00
2023-03-15T22:33:40.776Z,51.60
2023-03-15T22:36:09.903Z,53.40
2023-03-15T22:38:39.694Z,49.40
2023-03-15T22:41:09.143Z,56.00
2023-03-15T22:43:37.484Z,52.30
2023-03-15T22:46:06.499Z,55.70
2023-03-15T22:48:35.164Z,50.50
2023-03-15T22:51:09.982Z,50.60
2023-03-15T22:53:39.010Z,57.20
2023-03-15T22:56:07.337Z,57.60
2023-03-15T22:58:36.338Z,53.70
2023-03-15T23:01:04.530Z,58.80
2023-03-15T23:03:32.882Z,52.30
2023-03-15T23:06:00.985Z,55.40
2023-03-15T23:08:29.308Z,51.30
2023-03-15T23:10:58.691Z,50.30
2023-03-15T23:13:27.028Z,55.90
2023-03-15T23:15:55.451Z,50.20
2023-03-15T23:18:23.763Z,50.10
2023-03-15T23:20:51.840Z,52.30
2023-03-15T23:23:20.066Z,52.90
2023-03-15T23:25:48.213Z,51.90
2023-03-15T23:28:17.965Z,49.30
2023-03-15T23:30:47.088Z,47.30
2023-03-15T23:33:15.572Z,47.00
2023-03-15T23:35:44.770Z,43.80
2023-03-15T23:38:13.785Z,46.80
2023-03-15T23:40:42.318Z,49.10
2023-03-15T23:43:10.718Z,47.40
2023-03-15T23:45:39.220Z,51.50
2023-03-15T23:48:07.304Z,46.20
2023-03-15T23:50:38.487Z,42.30
2023-03-15T23:53:06.776Z,43.50
2023-03-15T23:55:35.047Z,49.60
2023-03-15T23:58:06.899Z,39.90
